createdAt,value
2023-02-01T00:00:55.804Z,22.30
2023-02-01T00:03:22.186Z,34.53
2023-02-01T00:05:59.353Z,31.13
2023-02-01T00:08:25.705Z,29.63
2023-02-01T00:11:09.857Z,34.40
2023-02-01T00:13:40.625Z,22.37
2023-02-01T00:16:09.383Z,24.60
2023-02-01T00:18:36.334Z,22.63
2023-02-01T00:21:03.331Z,23.30
2023-02-01T00:23:29.761Z,16.33
2023-02-01T00:25:56.099Z,19.07
2023-02-01T00:28:22.421Z,16.53
2023-02-01T00:30:57.186Z,13.60
2023-02-01T00:33:24.297Z,11.03
2023-02-01T00:35:50.627Z,20.30
2023-02-01T00:38:17.696Z,15.77
2023-02-01T00:40:44.020Z,15.87
2023-02-01T00:43:10.347Z,26.40
2023-02-01T00:45:36.661Z,17.13
2023-02-01T00:48:02.998Z,15.97
2023-02-01T00:50:29.455Z,14.77
2023-02-01T00:52:56.256Z,20.23
2023-02-01T00:55:22.642Z,15.63
2023-02-01T00:57:48.958Z,10.07
2023-02-01T01:00:17.320Z,13.83
2023-02-01T01:02:43.668Z,23.20
2023-02-01T01:05:09.999Z,33.57
2023-02-01T01:07:37.246Z,19.23
2023-02-01T01:10:03.809Z,17.07
2023-02-01T01:12:32.238Z,16.20
2023-02-01T01:14:58.578Z,20.27
2023-02-01T01:17:24.892Z,13.03
2023-02-01T01:19:51.235Z,16.10
2023-02-01T01:22:18.792Z,8.73
2023-02-01T01:24:45.100Z,13.63
2023-02-01T01:27:11.656Z,16.83
2023-02-01T01:29:38.041Z,20.43
2023-02-01T01:32:04.538Z,21.97
2023-02-01T01:34:30.975Z,20.33
2023-02-01T01:36:57.641Z,13.30
2023-02-01T01:39:24.005Z,11.47
2023-02-01T01:41:50.400Z,11.90
2023-02-01T01:44:58.643Z,13.20
2023-02-01T01:47:29.764Z,10.90
2023-02-01T01:49:56.428Z,20.67
2023-02-01T01:52:23.382Z,15.63
2023-02-01T01:54:53.551Z,10.00
2023-02-01T01:57:27.966Z,37.17
2023-02-01T02:00:03.312Z,17.57
2023-02-01T02:02:42.717Z,17.07
2023-02-01T02:05:10.429Z,16.60
2023-02-01T02:07:40.849Z,14.63
2023-02-01T02:10:11.556Z,17.03
2023-02-01T02:12:44.890Z,19.90
2023-02-01T02:15:13.449Z,25.90
2023-02-01T02:17:58.970Z,17.87
2023-02-01T02:20:45.893Z,7.93
2023-02-01T02:23:42.830Z,14.10
2023-02-01T02:26:35.934Z,11.47
2023-02-01T02:29:38.801Z,23.77
2023-02-01T02:32:43.776Z,13.67
2023-02-01T02:35:13.211Z,15.83
2023-02-01T02:38:05.991Z,26.63
2023-02-01T02:40:43.063Z,21.37
2023-02-01T02:43:38.079Z,12.43
2023-02-01T02:46:45.416Z,28.30
2023-02-01T02:49:30.037Z,14.30
2023-02-01T02:52:24.484Z,16.07
2023-02-01T02:54:52.875Z,18.03
2023-02-01T02:57:47.495Z,16.77
2023-02-01T03:00:36.985Z,22.43
2023-02-01T03:03:22.322Z,16.73
2023-02-01T03:05:51.461Z,21.00
2023-02-01T03:08:26.576Z,18.83
2023-02-01T03:11:08.081Z,20.60
2023-02-01T03:13:50.323Z,21.80
2023-02-01T03:16:28.896Z,12.97
2023-02-01T03:19:04.682Z,26.63
2023-02-01T03:21:51.971Z,8.07
2023-02-01T03:24:44.628Z,22.33
2023-02-01T03:27:20.075Z,14.23
2023-02-01T03:30:06.613Z,8.90
2023-02-01T03:32:55.314Z,17.07
2023-02-01T03:35:46.640Z,16.83
2023-02-01T03:38:41.926Z,8.97
2023-02-01T03:41:16.497Z,20.40
2023-02-01T03:43:55.881Z,23.90
2023-02-01T03:46:28.905Z,13.67
2023-02-01T03:48:56.397Z,17.30
2023-02-01T03:51:25.570Z,17.87
2023-02-01T03:53:53.669Z,18.00
2023-02-01T03:56:22.783Z,9.87
2023-02-01T03:58:59.717Z,19.20
2023-02-01T04:01:31.541Z,22.23
2023-02-01T04:03:59.785Z,28.77
2023-02-01T04:06:26.853Z,22.07
2023-02-01T04:08:56.632Z,13.03
2023-02-01T04:11:23.003Z,9.97
2023-02-01T04:13:49.351Z,18.23
2023-02-01T04:16:15.762Z,19.57
2023-02-01T04:18:42.245Z,15.13
2023-02-01T04:21:08.573Z,15.97
2023-02-01T04:23:34.960Z,24.33
2023-02-01T04:26:02.961Z,16.87
2023-02-01T04:28:29.479Z,22.97
2023-02-01T04:30:56.196Z,18.47
2023-02-01T04:33:22.593Z,11.83
2023-02-01T04:35:49.323Z,21.10
2023-02-01T04:38:15.763Z,19.13
2023-02-01T04:40:42.085Z,17.60
2023-02-01T04:43:08.935Z,19.90
2023-02-01T04:45:35.271Z,12.30
2023-02-01T04:48:01.588Z,14.47
2023-02-01T04:50:28.101Z,22.60
2023-02-01T04:52:54.483Z,11.93
2023-02-01T04:55:20.805Z,25.53
2023-02-01T04:57:47.236Z,14.73
2023-02-01T05:00:14.160Z,11.37
2023-02-01T05:02:40.588Z,20.07
2023-02-01T05:05:07.155Z,17.57
2023-02-01T05:07:33.532Z,13.23
2023-02-01T05:09:59.863Z,12.67
2023-02-01T05:12:44.566Z,13.40
2023-02-01T05:15:11.937Z,19.87
2023-02-01T05:17:38.400Z,19.33
2023-02-01T05:20:05.330Z,17.67
2023-02-01T05:22:31.649Z,10.83
2023-02-01T05:24:57.986Z,27.93
2023-02-01T05:27:24.461Z,21.40
2023-02-01T05:29:50.761Z,13.97
2023-02-01T05:32:22.574Z,9.20
2023-02-01T05:34:49.702Z,19.37
2023-02-01T05:37:16.061Z,13.43
2023-02-01T05:39:42.428Z,41.70
2023-02-01T05:42:08.757Z,13.23
2023-02-01T05:44:35.079Z,17.70
2023-02-01T05:47:01.419Z,22.30
2023-02-01T05:49:27.765Z,23.47
2023-02-01T05:51:54.102Z,33.20
2023-02-01T05:54:20.416Z,20.10
2023-02-01T05:56:46.747Z,14.63
2023-02-01T05:59:13.222Z,16.87
2023-02-01T06:01:39.556Z,12.80
2023-02-01T06:04:05.904Z,17.70
2023-02-01T06:06:32.365Z,18.17
2023-02-01T06:08:58.772Z,14.60
2023-02-01T06:11:32.310Z,24.33
2023-02-01T06:13:59.812Z,27.87
2023-02-01T06:16:26.267Z,20.30
2023-02-01T06:18:52.899Z,15.70
2023-02-01T06:21:24.522Z,22.37
2023-02-01T06:23:52.780Z,16.53
2023-02-01T06:26:19.292Z,20.20
2023-02-01T06:28:45.701Z,13.17
2023-02-01T06:31:12.845Z,23.93
2023-02-01T06:33:39.962Z,17.17
2023-02-01T06:36:09.061Z,23.00
2023-02-01T06:38:36.923Z,22.33
2023-02-01T06:41:04.283Z,21.17
2023-02-01T06:43:31.508Z,17.03
2023-02-01T06:46:02.957Z,15.23
2023-02-01T06:48:30.323Z,14.73
2023-02-01T06:50:57.036Z,13.60
2023-02-01T06:53:23.395Z,17.27
2023-02-01T06:56:00.759Z,18.43
2023-02-01T06:58:32.056Z,19.60
2023-02-01T07:00:59.113Z,15.03
2023-02-01T07:03:25.487Z,19.90
2023-02-01T07:05:56.563Z,17.97
2023-02-01T07:08:22.880Z,14.77
2023-02-01T07:10:49.210Z,15.00
2023-02-01T07:13:15.520Z,15.13
2023-02-01T07:15:41.896Z,20.53
2023-02-01T07:18:08.200Z,15.73
2023-02-01T07:20:34.590Z,20.07
2023-02-01T07:23:01.004Z,18.87
2023-02-01T07:25:27.312Z,13.13
2023-02-01T07:27:53.646Z,20.53
2023-02-01T07:30:20.146Z,29.93
2023-02-01T07:32:46.564Z,14.40
2023-02-01T07:35:13.080Z,22.13
2023-02-01T07:37:39.482Z,23.00
2023-02-01T07:40:06.672Z,15.93
2023-02-01T07:42:33.072Z,18.03
2023-02-01T07:45:07.898Z,29.10
2023-02-01T07:47:41.258Z,22.20
2023-02-01T07:50:08.743Z,28.47
2023-02-01T07:52:35.070Z,24.03
2023-02-01T07:55:01.439Z,24.80
2023-02-01T07:57:27.957Z,25.00
2023-02-01T08:00:12.662Z,35.27
2023-02-01T08:02:39.183Z,12.63
2023-02-01T08:05:06.501Z,13.73
2023-02-01T08:07:32.897Z,8.07
2023-02-01T08:09:59.468Z,21.37
2023-02-01T08:12:26.537Z,30.03
2023-02-01T08:14:52.875Z,18.87
2023-02-01T08:17:19.250Z,20.37
2023-02-01T08:19:45.583Z,22.50
2023-02-01T08:22:11.923Z,18.40
2023-02-01T08:24:41.281Z,16.27
2023-02-01T08:27:07.608Z,27.27
2023-02-01T08:29:33.944Z,28.33
2023-02-01T08:32:00.380Z,52.67
2023-02-01T08:34:26.921Z,30.80
2023-02-01T08:36:58.229Z,16.57
2023-02-01T08:39:25.383Z,30.03
2023-02-01T08:42:10.256Z,21.97
2023-02-01T08:44:37.295Z,16.70
2023-02-01T08:47:04.269Z,17.73
2023-02-01T08:49:30.685Z,18.40
2023-02-01T08:52:00.948Z,21.73
2023-02-01T08:54:30.305Z,10.07
2023-02-01T08:56:57.278Z,27.90
2023-02-01T08:59:23.675Z,26.33
2023-02-01T09:01:50.441Z,14.30
2023-02-01T09:04:16.900Z,36.90
2023-02-01T09:06:43.261Z,20.37
2023-02-01T09:09:09.591Z,34.03
2023-02-01T09:11:35.936Z,26.27
2023-02-01T09:14:02.439Z,36.73
2023-02-01T09:16:28.940Z,30.50
2023-02-01T09:19:14.841Z,30.87
2023-02-01T09:21:42.786Z,21.73
2023-02-01T09:24:11.556Z,26.73
2023-02-01T09:26:38.527Z,20.27
2023-02-01T09:29:10.863Z,14.47
2023-02-01T09:31:40.023Z,27.03
2023-02-01T09:34:07.422Z,24.60
2023-02-01T09:36:34.970Z,23.80
2023-02-01T09:39:02.334Z,33.57
2023-02-01T09:41:59.380Z,36.97
2023-02-01T09:44:52.093Z,15.77
2023-02-01T09:47:22.567Z,34.77
2023-02-01T09:50:03.457Z,16.63
2023-02-01T09:52:44.113Z,19.70
2023-02-01T09:55:28.551Z,16.53
2023-02-01T09:58:01.179Z,20.10
2023-02-01T10:00:36.120Z,21.87
2023-02-01T10:03:03.011Z,22.43
2023-02-01T10:05:56.969Z,10.60
2023-02-01T10:08:36.163Z,16.23
2023-02-01T10:11:25.193Z,14.90
2023-02-01T10:14:01.041Z,21.93
2023-02-01T10:16:41.283Z,30.10
2023-02-01T10:19:50.293Z,21.43
2023-02-01T10:23:16.020Z,24.17
2023-02-01T10:25:34.913Z,24.90
2023-02-01T10:28:02.825Z,8.30
2023-02-01T10:30:39.469Z,23.27
2023-02-01T10:33:24.369Z,28.47
2023-02-01T10:35:57.349Z,17.87
2023-02-01T10:38:28.197Z,16.03
2023-02-01T10:41:00.817Z,19.80
2023-02-01T10:43:27.297Z,17.23
2023-02-01T10:45:53.786Z,13.27
2023-02-01T10:48:20.655Z,27.53
2023-02-01T10:51:00.737Z,23.90
2023-02-01T10:53:40.763Z,27.63
2023-02-01T10:56:11.881Z,16.17
2023-02-01T10:58:48.635Z,18.03
2023-02-01T11:01:29.095Z,22.60
2023-02-01T11:04:00.687Z,11.67
2023-02-01T11:06:48.512Z,13.07
2023-02-01T11:09:21.933Z,21.77
2023-02-01T11:11:48.219Z,18.00
2023-02-01T11:14:18.959Z,14.57
2023-02-01T11:16:51.354Z,21.03
2023-02-01T11:19:18.728Z,30.53
2023-02-01T11:21:49.814Z,20.47
2023-02-01T11:24:24.518Z,18.90
2023-02-01T11:26:51.698Z,13.53
2023-02-01T11:29:23.100Z,21.07
2023-02-01T11:31:50.890Z,21.10
2023-02-01T11:34:21.839Z,19.47
2023-02-01T11:36:50.563Z,17.83
2023-02-01T11:39:30.947Z,11.03
2023-02-01T11:42:14.751Z,17.90
2023-02-01T11:44:46.242Z,18.97
2023-02-01T11:47:24.603Z,20.30
2023-02-01T11:49:53.644Z,21.17
2023-02-01T11:52:41.649Z,18.23
2023-02-01T11:55:14.386Z,15.60
2023-02-01T11:58:03.839Z,8.50
2023-02-01T12:00:48.123Z,16.43
2023-02-01T12:03:42.128Z,15.63
2023-02-01T12:06:28.126Z,21.70
2023-02-01T12:09:12.393Z,12.73
2023-02-01T12:11:57.558Z,12.40
2023-02-01T12:14:43.117Z,11.63
2023-02-01T12:17:37.974Z,29.43
2023-02-01T12:20:24.579Z,6.07
2023-02-01T12:23:15.834Z,28.83
2023-02-01T12:26:06.656Z,14.87
2023-02-01T12:28:45.088Z,20.87
2023-02-01T12:31:24.724Z,17.07
2023-02-01T12:33:56.976Z,18.03
2023-02-01T12:36:46.071Z,23.80
2023-02-01T12:39:33.767Z,15.00
2023-02-01T12:42:12.417Z,14.60
2023-02-01T12:44:53.016Z,16.57
2023-02-01T12:47:31.949Z,16.00
2023-02-01T12:50:22.464Z,19.37
2023-02-01T12:52:51.834Z,20.27
2023-02-01T12:55:37.476Z,15.73
2023-02-01T12:58:21.313Z,15.87
2023-02-01T13:01:19.181Z,10.63
2023-02-01T13:03:56.525Z,11.67
2023-02-01T13:06:29.206Z,14.60
2023-02-01T13:09:33.307Z,18.27
2023-02-01T13:12:27.535Z,9.70
2023-02-01T13:14:57.447Z,10.77
2023-02-01T13:17:28.732Z,8.47
2023-02-01T13:20:00.405Z,26.20
2023-02-01T13:22:32.270Z,18.57
2023-02-01T13:25:24.065Z,6.73
2023-02-01T13:27:54.109Z,18.17
2023-02-01T13:30:33.990Z,8.73
2023-02-01T13:33:52.257Z,10.73
2023-02-01T13:36:48.652Z,6.77
2023-02-01T13:39:21.705Z,8.63
2023-02-01T13:42:03.490Z,21.03
2023-02-01T13:44:34.376Z,10.37
2023-02-01T13:47:04.059Z,16.83
2023-02-01T13:49:39.661Z,19.13
2023-02-01T13:52:06.241Z,18.43
2023-02-01T13:54:35.733Z,12.70
2023-02-01T13:57:03.996Z,21.67
2023-02-01T13:59:40.407Z,9.43
2023-02-01T14:02:47.246Z,32.43
2023-02-01T14:05:22.730Z,13.03
2023-02-01T14:08:10.579Z,21.70
2023-02-01T14:10:48.574Z,14.73
2023-02-01T14:13:36.825Z,11.87
2023-02-01T14:16:03.217Z,20.40
2023-02-01T14:18:35.683Z,18.77
2023-02-01T14:21:30.200Z,11.60
2023-02-01T14:24:08.527Z,19.97
2023-02-01T14:26:37.894Z,15.83
2023-02-01T14:29:23.385Z,11.47
2023-02-01T14:31:56.915Z,14.87
2023-02-01T14:34:48.817Z,13.50
2023-02-01T14:37:18.227Z,17.37
2023-02-01T14:39:47.742Z,7.13
2023-02-01T14:42:25.591Z,13.77
2023-02-01T14:44:59.006Z,7.50
2023-02-01T14:47:28.492Z,10.33
2023-02-01T14:50:07.096Z,13.93
2023-02-01T14:52:44.438Z,16.03
2023-02-01T14:55:26.129Z,13.07
2023-02-01T14:57:56.710Z,10.20
2023-02-01T15:00:23.069Z,16.30
2023-02-01T15:02:50.789Z,15.30
2023-02-01T15:05:24.203Z,15.90
2023-02-01T15:07:52.943Z,17.70
2023-02-01T15:10:22.012Z,14.97
2023-02-01T15:12:50.213Z,14.47
2023-02-01T15:15:23.895Z,14.23
2023-02-01T15:18:00.783Z,11.13
2023-02-01T15:20:32.886Z,7.87
2023-02-01T15:23:02.700Z,12.20
2023-02-01T15:25:36.270Z,14.60
2023-02-01T15:28:02.625Z,13.93
2023-02-01T15:30:32.181Z,10.70
2023-02-01T15:33:08.397Z,11.33
2023-02-01T15:35:44.120Z,11.43
2023-02-01T15:38:31.625Z,11.73
2023-02-01T15:41:00.755Z,15.27
2023-02-01T15:43:29.487Z,14.77
2023-02-01T15:46:02.323Z,9.60
2023-02-01T15:48:36.606Z,26.30
2023-02-01T15:51:03.970Z,14.40
2023-02-01T15:53:32.006Z,18.33
2023-02-01T15:56:02.576Z,24.50
2023-02-01T15:58:29.531Z,13.53
2023-02-01T16:01:03.025Z,9.47
2023-02-01T16:03:44.754Z,13.47
2023-02-01T16:06:27.441Z,15.43
2023-02-01T16:09:01.577Z,6.00
2023-02-01T16:11:33.775Z,11.20
2023-02-01T16:14:01.414Z,15.47
2023-02-01T16:16:30.521Z,10.63
2023-02-01T16:18:57.065Z,12.70
2023-02-01T16:21:23.987Z,10.67
2023-02-01T16:23:51.874Z,17.97
2023-02-01T16:26:18.915Z,11.67
2023-02-01T16:28:45.724Z,13.27
2023-02-01T16:31:20.555Z,17.27
2023-02-01T16:33:51.449Z,19.80
2023-02-01T16:36:19.275Z,19.17
2023-02-01T16:38:47.471Z,7.83
2023-02-01T16:41:15.450Z,12.77
2023-02-01T16:43:41.991Z,12.83
2023-02-01T16:46:15.937Z,22.23
2023-02-01T16:48:46.908Z,15.27
2023-02-01T16:51:17.055Z,11.20
2023-02-01T16:53:53.881Z,13.67
2023-02-01T16:56:30.724Z,16.33
2023-02-01T16:58:57.368Z,13.07
2023-02-01T17:01:24.677Z,12.77
2023-02-01T17:03:51.260Z,5.03
2023-02-01T17:06:20.781Z,2.23
2023-02-01T17:08:50.954Z,4.00
2023-02-01T17:11:18.549Z,2.23
2023-02-01T17:13:46.283Z,4.33
2023-02-01T17:16:18.688Z,3.87
2023-02-01T17:19:07.925Z,3.27
2023-02-01T17:21:42.688Z,5.60
2023-02-01T17:24:14.117Z,4.70
2023-02-01T17:26:41.358Z,14.73
2023-02-01T17:29:07.853Z,9.87
2023-02-01T17:31:39.205Z,10.87
2023-02-01T17:34:05.574Z,7.90
2023-02-01T17:36:31.920Z,16.60
2023-02-01T17:39:05.839Z,18.60
2023-02-01T17:41:33.586Z,12.60
2023-02-01T17:44:00.241Z,22.50
2023-02-01T17:46:27.340Z,16.27
2023-02-01T17:48:54.827Z,17.90
2023-02-01T17:51:23.863Z,10.93
2023-02-01T17:53:50.412Z,23.37
2023-02-01T17:56:20.366Z,16.10
2023-02-01T17:58:47.692Z,16.47
2023-02-01T18:01:17.970Z,16.07
2023-02-01T18:03:44.525Z,13.13
2023-02-01T18:06:19.322Z,13.33
2023-02-01T18:08:46.112Z,12.80
2023-02-01T18:11:21.496Z,16.33
2023-02-01T18:13:49.017Z,19.10
2023-02-01T18:16:29.293Z,14.17
2023-02-01T18:19:01.712Z,15.97
2023-02-01T18:21:38.563Z,11.33
2023-02-01T18:24:05.244Z,22.27
2023-02-01T18:26:31.634Z,1.90
2023-02-01T18:28:58.132Z,1.90
2023-02-01T18:31:27.726Z,1.87
2023-02-01T18:33:55.514Z,4.40
2023-02-01T18:36:22.723Z,2.13
2023-02-01T18:38:49.118Z,2.07
2023-02-01T18:41:23.022Z,2.60
2023-02-01T18:43:50.972Z,5.07
2023-02-01T18:46:17.949Z,2.23
2023-02-01T18:48:44.561Z,3.27
2023-02-01T18:51:13.132Z,2.90
2023-02-01T18:53:40.046Z,2.70
2023-02-01T18:56:06.988Z,4.17
2023-02-01T18:58:33.322Z,3.90
2023-02-01T19:01:06.353Z,6.37
2023-02-01T19:03:32.746Z,5.50
2023-02-01T19:06:07.769Z,5.10
2023-02-01T19:08:34.473Z,9.90
2023-02-01T19:11:05.305Z,10.23
2023-02-01T19:13:31.795Z,12.17
2023-02-01T19:15:58.240Z,23.50
2023-02-01T19:18:24.622Z,30.50
2023-02-01T19:20:51.378Z,25.23
2023-02-01T19:23:18.743Z,15.63
2023-02-01T19:25:46.866Z,24.80
2023-02-01T19:28:14.088Z,13.77
2023-02-01T19:30:40.460Z,20.17
2023-02-01T19:33:07.029Z,10.90
2023-02-01T19:35:33.559Z,17.07
2023-02-01T19:37:59.998Z,17.07
2023-02-01T19:40:26.597Z,11.80
2023-02-01T19:42:53.301Z,6.40
2023-02-01T19:45:19.716Z,10.53
2023-02-01T19:47:46.168Z,7.17
2023-02-01T19:50:18.023Z,5.27
2023-02-01T19:52:45.647Z,2.23
2023-02-01T19:55:13.025Z,4.47
2023-02-01T19:57:39.953Z,3.07
2023-02-01T20:00:08.087Z,5.73
2023-02-01T20:02:34.060Z,2.73
2023-02-01T20:05:00.533Z,4.57
2023-02-01T20:07:26.962Z,2.27
2023-02-01T20:09:53.413Z,5.13
2023-02-01T20:12:19.773Z,4.30
2023-02-01T20:14:46.250Z,7.57
2023-02-01T20:17:14.866Z,4.93
2023-02-01T20:19:41.262Z,6.00
2023-02-01T20:22:07.643Z,3.37
2023-02-01T20:24:34.108Z,2.90
2023-02-01T20:27:01.335Z,5.03
2023-02-01T20:29:27.722Z,5.67
2023-02-01T20:31:54.128Z,8.87
2023-02-01T20:34:20.810Z,2.03
2023-02-01T20:36:47.160Z,11.93
2023-02-01T20:39:13.876Z,3.57
2023-02-01T20:41:41.080Z,3.40
2023-02-01T20:44:07.472Z,1.87
2023-02-01T20:46:35.064Z,2.37
2023-02-01T20:49:01.445Z,6.03
2023-02-01T20:51:27.880Z,3.63
2023-02-01T20:53:55.206Z,2.43
2023-02-01T20:56:21.743Z,2.30
2023-02-01T20:58:48.241Z,2.60
2023-02-01T21:01:15.387Z,1.83
2023-02-01T21:03:41.941Z,7.30
2023-02-01T21:06:10.153Z,2.73
2023-02-01T21:08:36.545Z,1.67
2023-02-01T21:11:09.083Z,2.33
2023-02-01T21:13:42.621Z,2.60
2023-02-01T21:16:11.514Z,3.70
2023-02-01T21:18:38.696Z,2.70
2023-02-01T21:21:06.817Z,2.00
2023-02-01T21:23:33.580Z,3.00
2023-02-01T21:26:03.034Z,3.10
2023-02-01T21:28:29.459Z,1.60
2023-02-01T21:30:55.958Z,2.77
2023-02-01T21:33:22.383Z,3.90
2023-02-01T21:35:51.437Z,5.80
2023-02-01T21:38:17.872Z,2.80
2023-02-01T21:40:44.262Z,1.93
2023-02-01T21:43:10.595Z,1.77
2023-02-01T21:45:38.287Z,5.10
2023-02-01T21:48:06.944Z,7.67
2023-02-01T21:50:35.133Z,3.70
2023-02-01T21:53:01.786Z,4.73
2023-02-01T21:55:28.134Z,7.57
2023-02-01T21:57:54.479Z,2.53
2023-02-01T22:00:21.084Z,1.63
2023-02-01T22:02:47.487Z,1.87
2023-02-01T22:05:14.682Z,1.93
2023-02-01T22:07:41.130Z,1.97
2023-02-01T22:10:07.894Z,7.07
2023-02-01T22:12:34.324Z,6.13
2023-02-01T22:15:00.696Z,3.20
2023-02-01T22:17:27.245Z,6.67
2023-02-01T22:19:53.611Z,1.87
2023-02-01T22:22:19.955Z,1.60
2023-02-01T22:24:46.308Z,2.90
2023-02-01T22:27:14.169Z,7.97
2023-02-01T22:29:42.240Z,1.70
2023-02-01T22:32:08.753Z,2.33
2023-02-01T22:34:35.192Z,3.50
2023-02-01T22:37:01.582Z,2.00
2023-02-01T22:39:27.956Z,3.80
2023-02-01T22:41:54.518Z,5.93
2023-02-01T22:44:21.059Z,2.57
2023-02-01T22:46:47.488Z,2.20
2023-02-01T22:49:13.852Z,7.63
2023-02-01T22:51:40.399Z,3.93
2023-02-01T22:54:06.880Z,5.70
2023-02-01T22:56:35.566Z,4.13
2023-02-01T22:59:05.460Z,5.60
2023-02-01T23:01:33.385Z,4.50
2023-02-01T23:04:01.739Z,5.33
2023-02-01T23:06:29.103Z,4.07
2023-02-01T23:08:57.746Z,6.23
2023-02-01T23:11:25.231Z,5.07
2023-02-01T23:13:52.305Z,2.97
2023-02-01T23:16:18.759Z,3.20
2023-02-01T23:18:45.640Z,2.73
2023-02-01T23:21:17.990Z,3.33
2023-02-01T23:23:49.493Z,7.50
2023-02-01T23:26:16.791Z,3.17
2023-02-01T23:28:43.979Z,9.63
2023-02-01T23:31:12.857Z,3.23
2023-02-01T23:33:40.344Z,5.00
2023-02-01T23:36:10.872Z,3.30
2023-02-01T23:38:37.298Z,5.60
2023-02-01T23:41:06.352Z,2.90
2023-02-01T23:43:52.250Z,6.27
2023-02-01T23:46:18.898Z,3.23
2023-02-01T23:48:47.839Z,4.13
2023-02-01T23:51:15.176Z,4.33
2023-02-01T23:53:41.512Z,2.73
2023-02-01T23:56:08.323Z,4.43
2023-02-01T23:58:34.693Z,3.17
